Puvirnituq Airport
CYPX : rendu visible

Aérodrome :











RETROUVEZ-NOUS SUR...

 
LOGIN :

S'inscrire | Disclaimer

   EN    FR    IT 

 









Légende :    VFR   VFR Marginal   IFR   IFR Intensif   IFR Très Intensif
Visi : 
Plafond : 
>= 8 km
>= 3000ft
5 à 8 km
1000 à 3000 ft
1500m à 5 km
500 à 1000 ft
800 à 1500m
200 à 500 ft
< 800m
< 200 ft
Symboles :   Orages  Brouillard  Fortes neiges  Fortes précipitations  Vent > 20 kt






- Altitude de l'aérodrome : 74 ft
- Code IATA : YPX


CYPX - Puvirnituq

DERNIER METAR :
  • 312000Z AUTO 30018KT 9SM OVC048 00/M04 A2997 RMK SLP151

METARs EXPIRÉS :
  • 311900Z AUTO 30019G24KT 9SM OVC048 01/M03 A2996 RMK SLP149
  • 311814Z AUTO 30018KT 9SM FEW020 OVC048 01/M03 A2995 RMK SLP145
  • 311800Z AUTO 31018G23KT 9SM -RA FEW020 OVC046 01/M03 A2995 RMK SLP144
  • 311757Z AUTO 31018G23KT 9SM -RA FEW020 OVC046 01/M03 A2995 RMK SLP144

TAF TAF CYPX
Valide du 31 à 18h jusqu'au 01 à 06h UTC


311738Z 3118/0106 32018KT P6SM FEW025 OVC040
TEMPO 3118/0102 3SM -SN BR OVC020
BECMG 0100/0102 34012KT
FM010200 34012KT P6SM SCT012 OVC030
TEMPO 0102/0106 2SM -SN BR OVC012 RMK FCST BASED ON AUTO OBS. NXT FCST BY 010000Z
FIR CZUL / Amérique du Nord



MET'MAP, la Météo Aéronautique d'un coup d'oeil ! - Copyright ORBIFLY Décembre 2007 - Disclaimer

ORBIFLY MET'MAP TEAM :

Programmation & Développement : Alexandra Zaïnal
Sur une idée originale de : Baudouin d'Aumeries
Assistance à la programmation : Marc-Olivier Méhu
Soutien technique & logistique : Manuel Goepfert

Contact : metmap@orbifly.com




SOURCES & CREDITS :

   NOAA       Earth
Advisory